sensor_id;sensor_type;location;lat;lon;timestamp;pressure;altitude;pressure_sealevel;temperature;humidity
7524;BME280;3803;51.666;7.630;2023-02-16T00:00:05;101838.81;;;5.96;59.34
7524;BME280;3803;51.666;7.630;2023-02-16T00:00:28;101827.34;;;5.93;59.24
7524;BME280;3803;51.666;7.630;2023-02-16T00:00:49;101830.84;;;5.93;59.09
7524;BME280;3803;51.666;7.630;2023-02-16T00:01:24;101831.44;;;6.02;59.01
7524;BME280;3803;51.666;7.630;2023-02-16T00:01:46;101820.69;;;5.96;58.75
7524;BME280;3803;51.666;7.630;2023-02-16T00:02:08;101830.34;;;5.99;58.76
7524;BME280;3803;51.666;7.630;2023-02-16T00:02:29;101823.25;;;5.96;59.09
7524;BME280;3803;51.666;7.630;2023-02-16T00:02:50;101825.84;;;5.96;58.91
7524;BME280;3803;51.666;7.630;2023-02-16T00:03:17;101822.50;;;5.97;58.74
7524;BME280;3803;51.666;7.630;2023-02-16T00:03:38;101824.88;;;5.94;59.16
7524;BME280;3803;51.666;7.630;2023-02-16T00:03:59;101829.06;;;5.92;59.02
7524;BME280;3803;51.666;7.630;2023-02-16T00:04:27;101830.38;;;5.85;59.29
7524;BME280;3803;51.666;7.630;2023-02-16T00:04:48;101834.13;;;5.91;59.42
7524;BME280;3803;51.666;7.630;2023-02-16T00:05:30;101842.22;;;5.95;59.69
7524;BME280;3803;51.666;7.630;2023-02-16T00:05:51;101817.09;;;5.81;59.41
7524;BME280;3803;51.666;7.630;2023-02-16T00:06:12;101824.56;;;5.89;59.40
7524;BME280;3803;51.666;7.630;2023-02-16T00:06:35;101831.03;;;5.96;59.37
7524;BME280;3803;51.666;7.630;2023-02-16T00:06:56;101834.44;;;5.95;59.22
7524;BME280;3803;51.666;7.630;2023-02-16T00:07:16;101824.69;;;5.91;59.41
7524;BME280;3803;51.666;7.630;2023-02-16T00:07:37;101837.03;;;5.95;59.18
7524;BME280;3803;51.666;7.630;2023-02-16T00:07:58;101833.44;;;5.93;59.16
7524;BME280;3803;51.666;7.630;2023-02-16T00:08:19;101823.66;;;5.89;59.21
7524;BME280;3803;51.666;7.630;2023-02-16T00:08:44;101836.72;;;5.91;59.25
7524;BME280;3803;51.666;7.630;2023-02-16T00:09:06;101829.47;;;5.85;59.34
7524;BME280;3803;51.666;7.630;2023-02-16T00:09:26;101828.47;;;5.83;59.13
7524;BME280;3803;51.666;7.630;2023-02-16T00:09:47;101828.47;;;5.83;59.05
7524;BME280;3803;51.666;7.630;2023-02-16T00:10:11;101846.00;;;5.87;59.34
7524;BME280;3803;51.666;7.630;2023-02-16T00:10:34;101837.34;;;5.86;59.33
7524;BME280;3803;51.666;7.630;2023-02-16T00:10:55;101844.50;;;5.91;59.41
7524;BME280;3803;51.666;7.630;2023-02-16T00:11:35;101831.94;;;5.83;59.37
7524;BME280;3803;51.666;7.630;2023-02-16T00:12:19;101843.00;;;5.94;59.30
7524;BME280;3803;51.666;7.630;2023-02-16T00:13:00;101826.69;;;5.82;59.49
7524;BME280;3803;51.666;7.630;2023-02-16T00:13:39;101830.66;;;5.90;59.55
7524;BME280;3803;51.666;7.630;2023-02-16T00:14:13;101839.22;;;5.89;59.78
7524;BME280;3803;51.666;7.630;2023-02-16T00:14:35;101821.28;;;5.79;59.66
7524;BME280;3803;51.666;7.630;2023-02-16T00:14:57;101822.91;;;5.77;59.36
7524;BME280;3803;51.666;7.630;2023-02-16T00:15:18;101836.16;;;5.81;59.48
7524;BME280;3803;51.666;7.630;2023-02-16T00:15:39;101821.50;;;5.68;59.69
7524;BME280;3803;51.666;7.630;2023-02-16T00:16:00;101820.53;;;5.66;59.50
7524;BME280;3803;51.666;7.630;2023-02-16T00:16:23;101840.03;;;5.74;59.75
7524;BME280;3803;51.666;7.630;2023-02-16T00:16:44;101814.81;;;5.58;59.83
7524;BME280;3803;51.666;7.630;2023-02-16T00:17:05;101829.84;;;5.64;59.79
7524;BME280;3803;51.666;7.630;2023-02-16T00:17:26;101819.19;;;5.59;60.09
7524;BME280;3803;51.666;7.630;2023-02-16T00:17:46;101826.97;;;5.59;59.69
7524;BME280;3803;51.666;7.630;2023-02-16T00:18:18;101820.69;;;5.56;59.96
7524;BME280;3803;51.666;7.630;2023-02-16T00:18:38;101823.50;;;5.59;60.09
7524;BME280;3803;51.666;7.630;2023-02-16T00:18:59;101825.06;;;5.57;59.89
7524;BME280;3803;51.666;7.630;2023-02-16T00:19:26;101825.69;;;5.53;60.08
7524;BME280;3803;51.666;7.630;2023-02-16T00:19:46;101823.97;;;5.53;59.98
7524;BME280;3803;51.666;7.630;2023-02-16T00:20:14;101834.84;;;5.61;59.97
7524;BME280;3803;51.666;7.630;2023-02-16T00:20:34;101820.28;;;5.50;60.13
7524;BME280;3803;51.666;7.630;2023-02-16T00:20:56;101832.84;;;5.57;59.95
7524;BME280;3803;51.666;7.630;2023-02-16T00:21:17;101822.19;;;5.52;59.61
7524;BME280;3803;51.666;7.630;2023-02-16T00:21:38;101815.22;;;5.51;59.98
7524;BME280;3803;51.666;7.630;2023-02-16T00:22:00;101831.03;;;5.56;60.18
7524;BME280;3803;51.666;7.630;2023-02-16T00:22:20;101827.47;;;5.54;60.04
7524;BME280;3803;51.666;7.630;2023-02-16T00:22:41;101818.09;;;5.56;60.33
7524;BME280;3803;51.666;7.630;2023-02-16T00:23:02;101813.63;;;5.53;60.01
7524;BME280;3803;51.666;7.630;2023-02-16T00:23:22;101837.63;;;5.64;60.39
7524;BME280;3803;51.666;7.630;2023-02-16T00:23:43;101826.16;;;5.60;60.49
7524;BME280;3803;51.666;7.630;2023-02-16T00:24:04;101825.47;;;5.63;60.47
7524;BME280;3803;51.666;7.630;2023-02-16T00:24:26;101818.31;;;5.59;60.04
7524;BME280;3803;51.666;7.630;2023-02-16T00:24:47;101819.31;;;5.61;60.09
7524;BME280;3803;51.666;7.630;2023-02-16T00:25:09;101834.63;;;5.71;60.12
7524;BME280;3803;51.666;7.630;2023-02-16T00:25:29;101813.31;;;5.62;60.10
7524;BME280;3803;51.666;7.630;2023-02-16T00:25:50;101828.38;;;5.68;60.08
7524;BME280;3803;51.666;7.630;2023-02-16T00:26:16;101828.38;;;5.68;60.14
7524;BME280;3803;51.666;7.630;2023-02-16T00:26:39;101816.91;;;5.64;60.17
7524;BME280;3803;51.666;7.630;2023-02-16T00:27:00;101807.16;;;5.60;60.04
7524;BME280;3803;51.666;7.630;2023-02-16T00:27:21;101830.47;;;5.73;59.96
7524;BME280;3803;51.666;7.630;2023-02-16T00:27:44;101831.25;;;5.72;60.17
7524;BME280;3803;51.666;7.630;2023-02-16T00:28:13;101821.63;;;5.70;60.31
7524;BME280;3803;51.666;7.630;2023-02-16T00:28:37;101818.69;;;5.65;60.29
7524;BME280;3803;51.666;7.630;2023-02-16T00:28:58;101813.50;;;5.65;60.27
7524;BME280;3803;51.666;7.630;2023-02-16T00:29:28;101826.28;;;5.75;60.20
7524;BME280;3803;51.666;7.630;2023-02-16T00:29:49;101815.34;;;5.66;60.33
7524;BME280;3803;51.666;7.630;2023-02-16T00:30:14;101831.06;;;5.69;60.29
7524;BME280;3803;51.666;7.630;2023-02-16T00:30:35;101816.22;;;5.67;60.17
7524;BME280;3803;51.666;7.630;2023-02-16T00:30:56;101821.50;;;5.68;59.89
7524;BME280;3803;51.666;7.630;2023-02-16T00:31:19;101809.25;;;5.66;60.10
7524;BME280;3803;51.666;7.630;2023-02-16T00:31:40;101831.25;;;5.72;60.27
7524;BME280;3803;51.666;7.630;2023-02-16T00:32:03;101808.34;;;5.65;60.32
7524;BME280;3803;51.666;7.630;2023-02-16T00:32:24;101834.88;;;5.74;60.34
7524;BME280;3803;51.666;7.630;2023-02-16T00:32:45;101821.50;;;5.68;60.29
7524;BME280;3803;51.666;7.630;2023-02-16T00:33:17;101829.69;;;5.74;60.33
7524;BME280;3803;51.666;7.630;2023-02-16T00:33:37;101825.31;;;5.73;60.23
7524;BME280;3803;51.666;7.630;2023-02-16T00:34:23;101817.31;;;5.70;60.01
7524;BME280;3803;51.666;7.630;2023-02-16T00:34:47;101818.22;;;5.71;60.06
7524;BME280;3803;51.666;7.630;2023-02-16T00:35:15;101806.34;;;5.61;60.04
7524;BME280;3803;51.666;7.630;2023-02-16T00:35:36;101817.41;;;5.58;60.21
7524;BME280;3803;51.666;7.630;2023-02-16T00:35:56;101815.81;;;5.60;60.37
7524;BME280;3803;51.666;7.630;2023-02-16T00:36:17;101823.09;;;5.66;60.00
7524;BME280;3803;51.666;7.630;2023-02-16T00:36:38;101823.28;;;5.69;60.15
7524;BME280;3803;51.666;7.630;2023-02-16T00:37:04;101818.69;;;5.65;59.87
7524;BME280;3803;51.666;7.630;2023-02-16T00:37:25;101815.13;;;5.63;59.96
7524;BME280;3803;51.666;7.630;2023-02-16T00:37:47;101817.81;;;5.65;60.18
7524;BME280;3803;51.666;7.630;2023-02-16T00:38:07;101822.50;;;5.70;60.20
7524;BME280;3803;51.666;7.630;2023-02-16T00:38:28;101811.72;;;5.64;60.26
7524;BME280;3803;51.666;7.630;2023-02-16T00:38:50;101815.53;;;5.69;60.35
7524;BME280;3803;51.666;7.630;2023-02-16T00:39:10;101797.59;;;5.59;60.35
7524;BME280;3803;51.666;7.630;2023-02-16T00:39:31;101817.19;;;5.69;60.31
7524;BME280;3803;51.666;7.630;2023-02-16T00:39:53;101814.94;;;5.60;60.29
7524;BME280;3803;51.666;7.630;2023-02-16T00:40:15;101814.72;;;5.57;60.54
7524;BME280;3803;51.666;7.630;2023-02-16T00:40:36;101807.16;;;5.60;60.64
7524;BME280;3803;51.666;7.630;2023-02-16T00:40:59;101811.03;;;5.67;60.29
7524;BME280;3803;51.666;7.630;2023-02-16T00:41:22;101803.78;;;5.61;60.50
7524;BME280;3803;51.666;7.630;2023-02-16T00:42:05;101813.72;;;5.68;60.20
7524;BME280;3803;51.666;7.630;2023-02-16T00:42:30;101812.81;;;5.68;60.39
7524;BME280;3803;51.666;7.630;2023-02-16T00:42:53;101808.03;;;5.60;60.06
7524;BME280;3803;51.666;7.630;2023-02-16T00:43:24;101804.47;;;5.58;60.35
7524;BME280;3803;51.666;7.630;2023-02-16T00:43:46;101804.47;;;5.58;60.57
7524;BME280;3803;51.666;7.630;2023-02-16T00:44:34;101801.00;;;5.58;60.32
7524;BME280;3803;51.666;7.630;2023-02-16T00:44:56;101804.34;;;5.57;60.56
7524;BME280;3803;51.666;7.630;2023-02-16T00:45:19;101816.81;;;5.63;60.58
7524;BME280;3803;51.666;7.630;2023-02-16T00:45:40;101804.16;;;5.54;60.11
7524;BME280;3803;51.666;7.630;2023-02-16T00:46:01;101808.84;;;5.59;60.49
7524;BME280;3803;51.666;7.630;2023-02-16T00:46:22;101816.72;;;5.61;60.41
7524;BME280;3803;51.666;7.630;2023-02-16T00:46:43;101803.47;;;5.56;60.20
7524;BME280;3803;51.666;7.630;2023-02-16T00:47:19;101803.47;;;5.56;60.37
7524;BME280;3803;51.666;7.630;2023-02-16T00:47:42;101812.34;;;5.60;60.60
7524;BME280;3803;51.666;7.630;2023-02-16T00:48:04;101800.78;;;5.55;60.69
7524;BME280;3803;51.666;7.630;2023-02-16T00:48:24;101799.97;;;5.56;60.35
7524;BME280;3803;51.666;7.630;2023-02-16T00:48:47;101807.97;;;5.59;60.77
7524;BME280;3803;51.666;7.630;2023-02-16T00:49:13;101792.72;;;5.50;60.24
7524;BME280;3803;51.666;7.630;2023-02-16T00:49:34;101805.94;;;5.55;60.42
7524;BME280;3803;51.666;7.630;2023-02-16T00:49:55;101796.50;;;5.55;60.22
7524;BME280;3803;51.666;7.630;2023-02-16T00:50:39;101801.56;;;5.54;60.61
7524;BME280;3803;51.666;7.630;2023-02-16T00:50:59;101791.03;;;5.51;60.57
7524;BME280;3803;51.666;7.630;2023-02-16T00:51:20;101806.19;;;5.58;60.72
7524;BME280;3803;51.666;7.630;2023-02-16T00:51:41;101817.81;;;5.65;60.82
7524;BME280;3803;51.666;7.630;2023-02-16T00:52:46;101801.19;;;5.61;60.73
7524;BME280;3803;51.666;7.630;2023-02-16T00:53:07;101794.22;;;5.60;60.47
7524;BME280;3803;51.666;7.630;2023-02-16T00:53:29;101796.19;;;5.64;60.45
7524;BME280;3803;51.666;7.630;2023-02-16T00:53:50;101812.03;;;5.69;60.24
7524;BME280;3803;51.666;7.630;2023-02-16T00:54:10;101804.75;;;5.63;60.17
7524;BME280;3803;51.666;7.630;2023-02-16T00:54:31;101815.53;;;5.69;60.53
7524;BME280;3803;51.666;7.630;2023-02-16T00:54:52;101816.91;;;5.64;60.13
7524;BME280;3803;51.666;7.630;2023-02-16T00:55:15;101818.69;;;5.65;60.22
7524;BME280;3803;51.666;7.630;2023-02-16T00:55:37;101821.28;;;5.65;60.42
7524;BME280;3803;51.666;7.630;2023-02-16T00:55:58;101813.22;;;5.60;60.33
7524;BME280;3803;51.666;7.630;2023-02-16T00:56:19;101805.16;;;5.56;60.31
7524;BME280;3803;51.666;7.630;2023-02-16T00:56:41;101808.84;;;5.59;60.60
7524;BME280;3803;51.666;7.630;2023-02-16T00:57:02;101791.09;;;5.52;60.55
7524;BME280;3803;51.666;7.630;2023-02-16T00:57:24;101809.94;;;5.63;60.74
7524;BME280;3803;51.666;7.630;2023-02-16T00:57:53;101816.31;;;5.68;60.67
7524;BME280;3803;51.666;7.630;2023-02-16T00:58:24;101800.09;;;5.57;60.54
7524;BME280;3803;51.666;7.630;2023-02-16T00:58:48;101801.38;;;5.64;60.72
7524;BME280;3803;51.666;7.630;2023-02-16T00:59:14;101814.63;;;5.69;60.57
7524;BME280;3803;51.666;7.630;2023-02-16T00:59:36;101796.81;;;5.60;60.33
7524;BME280;3803;51.666;7.630;2023-02-16T00:59:59;101807.47;;;5.65;60.46
7524;BME280;3803;51.666;7.630;2023-02-16T01:01:07;101808.25;;;5.64;60.33
7524;BME280;3803;51.666;7.630;2023-02-16T01:01:31;101799.16;;;5.57;60.74
7524;BME280;3803;51.666;7.630;2023-02-16T01:01:53;101789.13;;;5.48;60.39
7524;BME280;3803;51.666;7.630;2023-02-16T01:02:15;101803.06;;;5.50;60.74
7524;BME280;3803;51.666;7.630;2023-02-16T01:02:36;101795.00;;;5.45;60.65
7524;BME280;3803;51.666;7.630;2023-02-16T01:02:59;101818.91;;;5.55;60.38
7524;BME280;3803;51.666;7.630;2023-02-16T01:03:23;101806.63;;;5.52;60.88
7524;BME280;3803;51.666;7.630;2023-02-16T01:03:45;101795.56;;;5.41;60.63
7524;BME280;3803;51.666;7.630;2023-02-16T01:04:07;101798.38;;;5.44;60.71
7524;BME280;3803;51.666;7.630;2023-02-16T01:04:31;101788.63;;;5.40;60.35
7524;BME280;3803;51.666;7.630;2023-02-16T01:04:51;101794.88;;;5.44;60.75
7524;BME280;3803;51.666;7.630;2023-02-16T01:05:12;101797.41;;;5.42;60.92
7524;BME280;3803;51.666;7.630;2023-02-16T01:05:33;101797.97;;;5.38;60.63
7524;BME280;3803;51.666;7.630;2023-02-16T01:05:54;101799.19;;;5.43;60.89
7524;BME280;3803;51.666;7.630;2023-02-16T01:06:34;101801.66;;;5.42;60.78
7524;BME280;3803;51.666;7.630;2023-02-16T01:07:15;101815.03;;;5.48;60.87
7524;BME280;3803;51.666;7.630;2023-02-16T01:07:56;101800.19;;;5.45;60.71
7524;BME280;3803;51.666;7.630;2023-02-16T01:08:35;101807.75;;;5.56;60.93
7524;BME280;3803;51.666;7.630;2023-02-16T01:09:17;101803.38;;;5.55;60.87
7524;BME280;3803;51.666;7.630;2023-02-16T01:09:57;101803.59;;;5.58;60.65
7524;BME280;3803;51.666;7.630;2023-02-16T01:10:38;101804.34;;;5.57;60.52
7524;BME280;3803;51.666;7.630;2023-02-16T01:11:18;101798.97;;;5.54;60.43
7524;BME280;3803;51.666;7.630;2023-02-16T01:11:39;101805.06;;;5.54;60.69
7524;BME280;3803;51.666;7.630;2023-02-16T01:12:00;101799.78;;;5.53;60.37
7524;BME280;3803;51.666;7.630;2023-02-16T01:12:22;101807.16;;;5.60;60.64
7524;BME280;3803;51.666;7.630;2023-02-16T01:12:43;101804.34;;;5.57;60.49
7524;BME280;3803;51.666;7.630;2023-02-16T01:13:04;101794.00;;;5.57;60.37
7524;BME280;3803;51.666;7.630;2023-02-16T01:13:28;101801.19;;;5.61;60.46
7524;BME280;3803;51.666;7.630;2023-02-16T01:13:49;101808.34;;;5.65;60.61
7524;BME280;3803;51.666;7.630;2023-02-16T01:14:11;101805.66;;;5.64;60.27
7524;BME280;3803;51.666;7.630;2023-02-16T01:14:32;101803.66;;;5.59;60.67
7524;BME280;3803;51.666;7.630;2023-02-16T01:14:54;101809.34;;;5.67;60.26
7524;BME280;3803;51.666;7.630;2023-02-16T01:15:18;101810.03;;;5.65;60.34
7524;BME280;3803;51.666;7.630;2023-02-16T01:15:41;101796.69;;;5.58;60.67
7524;BME280;3803;51.666;7.630;2023-02-16T01:16:03;101788.34;;;5.49;60.41
7524;BME280;3803;51.666;7.630;2023-02-16T01:16:35;101799.78;;;5.53;60.13
7524;BME280;3803;51.666;7.630;2023-02-16T01:16:56;101794.19;;;5.46;60.46
7524;BME280;3803;51.666;7.630;2023-02-16T01:17:17;101803.97;;;5.51;60.34
7524;BME280;3803;51.666;7.630;2023-02-16T01:17:38;101793.22;;;5.44;60.71
7524;BME280;3803;51.666;7.630;2023-02-16T01:17:59;101809.34;;;5.54;60.79
7524;BME280;3803;51.666;7.630;2023-02-16T01:18:20;101809.34;;;5.54;60.80
7524;BME280;3803;51.666;7.630;2023-02-16T01:18:45;101795.91;;;5.46;60.63
7524;BME280;3803;51.666;7.630;2023-02-16T01:19:06;101807.56;;;5.53;60.25
7524;BME280;3803;51.666;7.630;2023-02-16T01:19:27;101804.66;;;5.48;60.68
7524;BME280;3803;51.666;7.630;2023-02-16T01:19:49;101791.31;;;5.42;60.66
7524;BME280;3803;51.666;7.630;2023-02-16T01:20:15;101801.84;;;5.45;60.51
7524;BME280;3803;51.666;7.630;2023-02-16T01:20:36;101800.19;;;5.45;60.64
7524;BME280;3803;51.666;7.630;2023-02-16T01:20:56;101804.38;;;5.43;60.39
7524;BME280;3803;51.666;7.630;2023-02-16T01:21:17;101804.56;;;5.46;60.51
7524;BME280;3803;51.666;7.630;2023-02-16T01:21:38;101807.84;;;5.44;60.82
7524;BME280;3803;51.666;7.630;2023-02-16T01:21:58;101799.78;;;5.39;61.01
7524;BME280;3803;51.666;7.630;2023-02-16T01:22:21;101806.97;;;5.43;60.66
7524;BME280;3803;51.666;7.630;2023-02-16T01:22:42;101801.78;;;5.43;60.97
7524;BME280;3803;51.666;7.630;2023-02-16T01:23:03;101799.56;;;5.36;60.87
7524;BME280;3803;51.666;7.630;2023-02-16T01:23:23;101806.97;;;5.43;61.12
7524;BME280;3803;51.666;7.630;2023-02-16T01:23:44;101799.78;;;5.39;60.75
7524;BME280;3803;51.666;7.630;2023-02-16T01:24:05;101806.72;;;5.40;60.72
7524;BME280;3803;51.666;7.630;2023-02-16T01:24:26;101816.28;;;5.41;60.99
7524;BME280;3803;51.666;7.630;2023-02-16T01:24:46;101811.53;;;5.34;60.80
7524;BME280;3803;51.666;7.630;2023-02-16T01:25:07;101816.72;;;5.34;60.91
7524;BME280;3803;51.666;7.630;2023-02-16T01:25:29;101805.44;;;5.33;60.84
7524;BME280;3803;51.666;7.630;2023-02-16T01:25:49;101814.31;;;5.37;61.19
7524;BME280;3803;51.666;7.630;2023-02-16T01:26:16;101797.38;;;5.29;60.82
7524;BME280;3803;51.666;7.630;2023-02-16T01:26:42;101808.34;;;5.38;60.90
7524;BME280;3803;51.666;7.630;2023-02-16T01:27:05;101804.84;;;5.38;61.00
7524;BME280;3803;51.666;7.630;2023-02-16T01:27:30;101800.47;;;5.37;60.84
7524;BME280;3803;51.666;7.630;2023-02-16T01:27:51;101801.38;;;5.37;61.06
7524;BME280;3803;51.666;7.630;2023-02-16T01:28:19;101806.72;;;5.40;60.75
7524;BME280;3803;51.666;7.630;2023-02-16T01:28:40;101810.66;;;5.47;60.89
7524;BME280;3803;51.666;7.630;2023-02-16T01:29:01;101805.94;;;5.41;60.90
7524;BME280;3803;51.666;7.630;2023-02-16T01:29:22;101790.31;;;5.40;60.64
7524;BME280;3803;51.666;7.630;2023-02-16T01:29:43;101800.00;;;5.42;60.96
7524;BME280;3803;51.666;7.630;2023-02-16T01:30:14;101809.16;;;5.51;60.69
7524;BME280;3803;51.666;7.630;2023-02-16T01:30:36;101796.78;;;5.46;60.55
7524;BME280;3803;51.666;7.630;2023-02-16T01:30:59;101805.75;;;5.52;60.50
7524;BME280;3803;51.666;7.630;2023-02-16T01:31:20;101801.97;;;5.46;60.56
7524;BME280;3803;51.666;7.630;2023-02-16T01:31:41;101800.19;;;5.45;60.64
7524;BME280;3803;51.666;7.630;2023-02-16T01:32:02;101794.59;;;5.39;60.67
7524;BME280;3803;51.666;7.630;2023-02-16T01:32:23;101791.19;;;5.40;60.88
7524;BME280;3803;51.666;7.630;2023-02-16T01:32:44;101790.22;;;5.38;60.84
7524;BME280;3803;51.666;7.630;2023-02-16T01:33:10;101784.03;;;5.36;60.75
7524;BME280;3803;51.666;7.630;2023-02-16T01:33:31;101800.19;;;5.45;60.59
7524;BME280;3803;51.666;7.630;2023-02-16T01:33:53;101797.28;;;5.41;60.73
7524;BME280;3803;51.666;7.630;2023-02-16T01:34:14;101797.06;;;5.38;60.62
7524;BME280;3803;51.666;7.630;2023-02-16T01:34:37;101801.47;;;5.39;60.99
7524;BME280;3803;51.666;7.630;2023-02-16T01:34:58;101800.75;;;5.41;60.85
7524;BME280;3803;51.666;7.630;2023-02-16T01:35:27;101812.31;;;5.46;60.72
7524;BME280;3803;51.666;7.630;2023-02-16T01:35:48;101799.06;;;5.42;60.70
7524;BME280;3803;51.666;7.630;2023-02-16T01:36:22;101807.94;;;5.45;60.77
7524;BME280;3803;51.666;7.630;2023-02-16T01:36:48;101812.50;;;5.50;60.60
7524;BME280;3803;51.666;7.630;2023-02-16T01:37:13;101812.91;;;5.56;60.72
7524;BME280;3803;51.666;7.630;2023-02-16T01:37:36;101801.09;;;5.46;60.89
7524;BME280;3803;51.666;7.630;2023-02-16T01:37:57;101804.66;;;5.48;60.81
7524;BME280;3803;51.666;7.630;2023-02-16T01:38:20;101818.09;;;5.56;60.59
7524;BME280;3803;51.666;7.630;2023-02-16T01:38:41;101804.84;;;5.51;60.37
7524;BME280;3803;51.666;7.630;2023-02-16T01:39:03;101809.16;;;5.51;60.09
7524;BME280;3803;51.666;7.630;2023-02-16T01:39:23;101808.25;;;5.50;60.24
7524;BME280;3803;51.666;7.630;2023-02-16T01:39:44;101791.59;;;5.33;60.48
7524;BME280;3803;51.666;7.630;2023-02-16T01:40:05;101804.84;;;5.38;60.84
7524;BME280;3803;51.666;7.630;2023-02-16T01:42:50;101811.94;;;5.54;60.69
7524;BME280;3803;51.666;7.630;2023-02-16T01:43:17;101813.84;;;5.56;60.57
7524;BME280;3803;51.666;7.630;2023-02-16T01:43:47;101809.16;;;5.51;60.30
7524;BME280;3803;51.666;7.630;2023-02-16T01:44:11;101806.34;;;5.47;60.59
7524;BME280;3803;51.666;7.630;2023-02-16T01:44:40;101798.66;;;5.36;60.86
7524;BME280;3803;51.666;7.630;2023-02-16T01:45:08;101814.13;;;5.47;60.86
7524;BME280;3803;51.666;7.630;2023-02-16T01:45:37;101805.75;;;5.38;61.02
7524;BME280;3803;51.666;7.630;2023-02-16T01:46:07;101804.25;;;5.42;60.46
7524;BME280;3803;51.666;7.630;2023-02-16T01:47:23;101809.44;;;5.42;60.44
7524;BME280;3803;51.666;7.630;2023-02-16T01:48:23;101813.31;;;5.35;60.82
7524;BME280;3803;51.666;7.630;2023-02-16T01:48:45;101797.16;;;5.26;60.70
7524;BME280;3803;51.666;7.630;2023-02-16T01:49:11;101799.66;;;5.24;60.76
7524;BME280;3803;51.666;7.630;2023-02-16T01:49:32;101796.97;;;5.23;61.06
7524;BME280;3803;51.666;7.630;2023-02-16T01:49:53;101791.00;;;5.24;60.96
7524;BME280;3803;51.666;7.630;2023-02-16T01:50:23;101810.44;;;5.30;60.91
7524;BME280;3803;51.666;7.630;2023-02-16T01:50:48;101813.09;;;5.32;60.81
7524;BME280;3803;51.666;7.630;2023-02-16T01:51:22;101792.41;;;5.18;60.47
7524;BME280;3803;51.666;7.630;2023-02-16T01:51:51;101809.91;;;5.23;60.89
7524;BME280;3803;51.666;7.630;2023-02-16T01:52:32;101815.47;;;5.15;61.11
7524;BME280;3803;51.666;7.630;2023-02-16T01:52:59;101812.56;;;5.11;61.17
7524;BME280;3803;51.666;7.630;2023-02-16T01:53:34;101800.50;;;4.98;61.07
7524;BME280;3803;51.666;7.630;2023-02-16T01:54:59;101804.06;;;4.86;61.61
7524;BME280;3803;51.666;7.630;2023-02-16T01:55:46;101793.88;;;4.76;61.47
7524;BME280;3803;51.666;7.630;2023-02-16T01:56:44;101805.84;;;4.87;61.33
7524;BME280;3803;51.666;7.630;2023-02-16T01:57:22;101803.25;;;4.87;61.31
7524;BME280;3803;51.666;7.630;2023-02-16T01:57:55;101806.00;;;4.77;61.44
7524;BME280;3803;51.666;7.630;2023-02-16T01:58:38;101810.06;;;4.73;61.32
7524;BME280;3803;51.666;7.630;2023-02-16T01:59:59;101804.19;;;4.62;61.80
7524;BME280;3803;51.666;7.630;2023-02-16T02:01:35;101806.09;;;4.53;61.78
7524;BME280;3803;51.666;7.630;2023-02-16T02:02:18;101806.53;;;4.59;61.56
7524;BME280;3803;51.666;7.630;2023-02-16T02:02:46;101788.59;;;4.49;61.91
7524;BME280;3803;51.666;7.630;2023-02-16T02:03:10;101800.84;;;4.51;61.90
7524;BME280;3803;51.666;7.630;2023-02-16T02:03:51;101792.66;;;4.45;61.92
7524;BME280;3803;51.666;7.630;2023-02-16T02:04:43;101791.91;;;4.34;61.98
7524;BME280;3803;51.666;7.630;2023-02-16T02:05:26;101796.94;;;4.33;62.25
7524;BME280;3803;51.666;7.630;2023-02-16T02:05:54;101795.03;;;4.30;62.50
7524;BME280;3803;51.666;7.630;2023-02-16T02:06:19;101790.66;;;4.29;62.38
7524;BME280;3803;51.666;7.630;2023-02-16T02:06:41;101795.28;;;4.33;62.65
7524;BME280;3803;51.666;7.630;2023-02-16T02:07:02;101794.84;;;4.27;62.42
7524;BME280;3803;51.666;7.630;2023-02-16T02:07:32;101800.66;;;4.36;62.76
7524;BME280;3803;51.666;7.630;2023-02-16T02:07:58;101797.06;;;4.34;62.93
7524;BME280;3803;51.666;7.630;2023-02-16T02:08:35;101788.31;;;4.32;62.52
7524;BME280;3803;51.666;7.630;2023-02-16T02:09:09;101798.00;;;4.35;63.03
7524;BME280;3803;51.666;7.630;2023-02-16T02:09:42;101789.19;;;4.33;62.87
7524;BME280;3803;51.666;7.630;2023-02-16T02:11:23;101798.97;;;4.37;62.82
7524;BME280;3803;51.666;7.630;2023-02-16T02:12:12;101784.84;;;4.20;62.57
7524;BME280;3803;51.666;7.630;2023-02-16T02:13:02;101792.25;;;4.15;62.74
7524;BME280;3803;51.666;7.630;2023-02-16T02:13:51;101798.34;;;4.16;63.43
7524;BME280;3803;51.666;7.630;2023-02-16T02:14:23;101800.59;;;4.23;63.23
7524;BME280;3803;51.666;7.630;2023-02-16T02:14:44;101784.63;;;4.17;63.53
7524;BME280;3803;51.666;7.630;2023-02-16T02:15:08;101794.53;;;4.22;63.44
7524;BME280;3803;51.666;7.630;2023-02-16T02:15:30;101796.53;;;4.27;63.23
7524;BME280;3803;51.666;7.630;2023-02-16T02:15:51;101800.00;;;4.15;63.18
7524;BME280;3803;51.666;7.630;2023-02-16T02:16:16;101802.13;;;4.21;63.24
7524;BME280;3803;51.666;7.630;2023-02-16T02:16:38;101796.97;;;4.21;63.40
7524;BME280;3803;51.666;7.630;2023-02-16T02:17:06;101802.13;;;4.21;63.33
7524;BME280;3803;51.666;7.630;2023-02-16T02:17:28;101781.72;;;4.12;63.16
7524;BME280;3803;51.666;7.630;2023-02-16T02:17:49;101792.38;;;4.17;63.62
7524;BME280;3803;51.666;7.630;2023-02-16T02:18:10;101786.66;;;4.09;63.31
7524;BME280;3803;51.666;7.630;2023-02-16T02:18:31;101793.16;;;4.16;63.31
7524;BME280;3803;51.666;7.630;2023-02-16T02:18:51;101777.22;;;4.09;63.50
7524;BME280;3803;51.666;7.630;2023-02-16T02:19:13;101792.13;;;4.14;63.65
7524;BME280;3803;51.666;7.630;2023-02-16T02:19:46;101782.41;;;4.09;63.22
7524;BME280;3803;51.666;7.630;2023-02-16T02:23:20;101801.34;;;4.10;63.29
7524;BME280;3803;51.666;7.630;2023-02-16T02:27:27;101796.97;;;4.21;63.44
7524;BME280;3803;51.666;7.630;2023-02-16T02:28:09;101785.75;;;4.20;63.35
7524;BME280;3803;51.666;7.630;2023-02-16T02:28:46;101791.16;;;4.23;63.23
7524;BME280;3803;51.666;7.630;2023-02-16T02:29:41;101788.56;;;4.23;63.48
7524;BME280;3803;51.666;7.630;2023-02-16T02:30:37;101775.66;;;4.23;63.16
7524;BME280;3803;51.666;7.630;2023-02-16T02:31:35;101780.88;;;4.37;63.37
7524;BME280;3803;51.666;7.630;2023-02-16T02:32:12;101764.63;;;4.26;63.15
7524;BME280;3803;51.666;7.630;2023-02-16T02:33:54;101780.09;;;4.38;63.45
7524;BME280;3803;51.666;7.630;2023-02-16T02:35:50;101786.56;;;4.45;63.12
7524;BME280;3803;51.666;7.630;2023-02-16T02:36:57;101772.22;;;4.36;62.81
7524;BME280;3803;51.666;7.630;2023-02-16T02:38:07;101786.56;;;4.45;62.73
7524;BME280;3803;51.666;7.630;2023-02-16T02:41:07;101783.34;;;4.35;63.14
7524;BME280;3803;51.666;7.630;2023-02-16T02:43:10;101789.00;;;4.18;63.66
7524;BME280;3803;51.666;7.630;2023-02-16T02:43:56;101775.84;;;4.15;63.99